Disclaimer

Please do not use the information listed here in-flight or in-navigation, as they are not provided to us by the airports but are provided by volunteers, so they might be outdated.

Search


Regions


Airport information page

Radio informations:
LIMA TWR - 42.4 MHz
LIMA RADAR - 119.1 MHz
MUNCHEN CON - 129.45 MHz
A/G - 42.4 MHz

Airport informations:
Latitude: 48° 13' 13.07" N
Longitude: 009° 54' 36.07" E
Elevation: 1766 feet - 538 meters
Operating hours: Remarks
Operating agency: Military
Timezone: UTC+1(+2DT) - Last Sunday in March to last Sunday in October
Fuel: JP-8, SemiKeroscene MIL Spec T-83133, without icing inhibitor

Runway information:
03/21 - 1968 x 164 feet< - >600 x 50 meters
09/27 - 5400 x 98 feet< - >1646 x 30 meters

Recent METARs:
ETHL 210120Z 04006KT 4000 BR BKN002 M02/M03 Q1009 AMB
ETHL 210220Z 03004KT 1000 BR VV000 M02/M02 Q1009 RED
ETHL 210220Z 03004KT 1000 BR VV000 M02/M02 Q1009 RED

Airport on the map: